createdAt,value
2023-04-26T00:02:23.200Z,78.02
2023-04-26T00:04:56.631Z,77.34
2023-04-26T00:07:25.818Z,77.58
2023-04-26T00:09:53.803Z,77.93
2023-04-26T00:12:23.306Z,78.23
2023-04-26T00:14:51.212Z,77.26
2023-04-26T00:17:19.196Z,77.78
2023-04-26T00:19:47.036Z,77.28
2023-04-26T00:22:15.394Z,76.50
2023-04-26T00:24:43.445Z,77.68
2023-04-26T00:27:12.507Z,77.91
2023-04-26T00:29:41.783Z,77.91
2023-04-26T00:32:09.851Z,77.89
2023-04-26T00:34:39.050Z,77.80
2023-04-26T00:37:07.240Z,78.05
2023-04-26T00:39:35.057Z,77.71
2023-04-26T00:42:03.168Z,77.61
2023-04-26T00:44:31.135Z,77.17
2023-04-26T00:47:00.614Z,77.16
2023-04-26T00:49:29.597Z,77.72
2023-04-26T00:51:57.653Z,76.83
2023-04-26T00:54:26.292Z,76.29
2023-04-26T00:56:55.342Z,76.58
2023-04-26T00:59:23.249Z,76.76
2023-04-26T01:01:51.194Z,76.92
2023-04-26T01:04:20.899Z,76.40
2023-04-26T01:06:49.677Z,77.38
2023-04-26T01:09:19.313Z,76.87
2023-04-26T01:11:48.010Z,77.32
2023-04-26T01:14:16.763Z,77.24
2023-04-26T01:16:47.050Z,77.72
2023-04-26T01:19:15.426Z,77.18
2023-04-26T01:21:45.049Z,76.16
2023-04-26T01:24:17.343Z,76.63
2023-04-26T01:26:45.990Z,76.26
2023-04-26T01:29:18.600Z,76.25
2023-04-26T01:31:46.923Z,76.49
2023-04-26T01:34:15.061Z,75.92
2023-04-26T01:36:43.592Z,75.92
2023-04-26T01:39:11.718Z,76.10
2023-04-26T01:41:40.945Z,76.07
2023-04-26T01:44:08.872Z,76.09
2023-04-26T01:46:36.764Z,75.91
2023-04-26T01:49:04.723Z,76.84
2023-04-26T01:51:32.783Z,76.88
2023-04-26T01:54:00.833Z,76.24
2023-04-26T01:56:28.713Z,76.63
2023-04-26T01:58:57.873Z,76.36
2023-04-26T02:01:25.755Z,75.92
2023-04-26T02:03:53.858Z,76.26
2023-04-26T02:06:22.413Z,76.40
2023-04-26T02:08:50.470Z,76.24
2023-04-26T02:11:18.433Z,76.57
2023-04-26T02:13:46.567Z,76.44
2023-04-26T02:16:17.076Z,76.66
2023-04-26T02:18:45.530Z,76.54
2023-04-26T02:21:13.540Z,76.92
2023-04-26T02:23:41.713Z,76.41
2023-04-26T02:26:09.527Z,77.38
2023-04-26T02:28:37.470Z,76.18
2023-04-26T02:31:05.872Z,76.92
2023-04-26T02:33:35.614Z,77.02
2023-04-26T02:36:05.362Z,77.32
2023-04-26T02:38:35.120Z,77.08
2023-04-26T02:41:03.909Z,77.58
2023-04-26T02:43:31.976Z,77.30
2023-04-26T02:46:01.471Z,77.56
2023-04-26T02:48:29.444Z,77.03
2023-04-26T02:50:58.616Z,76.36
2023-04-26T02:53:26.719Z,76.55
2023-04-26T02:55:54.658Z,76.51
2023-04-26T02:58:22.482Z,76.58
2023-04-26T03:00:50.583Z,76.93
2023-04-26T03:03:18.723Z,76.24
2023-04-26T03:05:46.575Z,75.66
2023-04-26T03:08:16.086Z,75.70
2023-04-26T03:10:45.894Z,75.71
2023-04-26T03:13:13.870Z,75.45
2023-04-26T03:15:45.728Z,75.16
2023-04-26T03:18:13.693Z,75.15
2023-04-26T03:20:42.020Z,74.45
2023-04-26T03:23:09.898Z,73.89
2023-04-26T03:25:41.317Z,74.32
2023-04-26T03:28:09.249Z,72.83
2023-04-26T03:30:37.120Z,73.57
2023-04-26T03:33:05.033Z,73.34
2023-04-26T03:35:33.006Z,72.00
2023-04-26T03:38:00.919Z,72.16
2023-04-26T03:40:28.739Z,72.47
2023-04-26T03:42:58.017Z,71.40
2023-04-26T03:45:26.944Z,71.90
2023-04-26T03:47:55.106Z,72.30
2023-04-26T03:50:23.257Z,71.92
2023-04-26T03:52:51.310Z,71.17
2023-04-26T03:55:19.228Z,71.66
2023-04-26T03:57:47.149Z,71.74
2023-04-26T04:00:17.160Z,71.69
2023-04-26T04:02:45.749Z,71.18
2023-04-26T04:05:13.747Z,71.18
2023-04-26T04:07:42.083Z,70.36
2023-04-26T04:10:11.552Z,70.57
2023-04-26T04:12:39.485Z,70.74
2023-04-26T04:15:08.339Z,71.17
2023-04-26T04:17:38.813Z,69.79
2023-04-26T04:20:08.844Z,69.49
2023-04-26T04:22:36.793Z,69.51
2023-04-26T04:25:06.149Z,68.78
2023-04-26T04:27:33.972Z,69.05
2023-04-26T04:30:03.633Z,69.24
2023-04-26T04:32:32.954Z,69.41
2023-04-26T04:35:02.738Z,68.83
2023-04-26T04:37:33.602Z,68.55
2023-04-26T04:40:01.746Z,68.17
2023-04-26T04:42:32.747Z,67.07
2023-04-26T04:45:00.788Z,67.21
2023-04-26T04:47:28.899Z,66.76
2023-04-26T04:49:56.927Z,67.73
2023-04-26T04:52:26.190Z,66.52
2023-04-26T04:54:54.017Z,66.11
2023-04-26T04:57:21.867Z,66.53
2023-04-26T04:59:49.912Z,65.73
2023-04-26T05:02:17.953Z,66.25
2023-04-26T05:04:46.185Z,65.70
2023-04-26T05:07:15.702Z,64.05
2023-04-26T05:09:45.778Z,65.26
2023-04-26T05:12:13.700Z,65.63
2023-04-26T05:14:41.923Z,64.67
2023-04-26T05:17:09.873Z,62.74
2023-04-26T05:19:37.879Z,62.55
2023-04-26T05:22:05.870Z,61.55
2023-04-26T05:24:33.651Z,61.24
2023-04-26T05:27:05.388Z,60.13
2023-04-26T05:29:33.246Z,59.37
2023-04-26T05:32:01.365Z,60.50
2023-04-26T05:34:29.229Z,57.63
2023-04-26T05:36:57.110Z,56.42
2023-04-26T05:39:25.188Z,54.29
2023-04-26T05:41:53.219Z,52.16
2023-04-26T05:44:22.524Z,51.27
2023-04-26T05:46:50.338Z,48.12
2023-04-26T05:49:18.199Z,46.45
2023-04-26T05:51:45.985Z,45.31
2023-04-26T05:54:13.980Z,44.37
2023-04-26T05:56:41.837Z,41.25
2023-04-26T05:59:09.727Z,39.52
2023-04-26T06:01:38.951Z,36.90
2023-04-26T06:04:07.431Z,35.75
2023-04-26T06:06:35.954Z,34.46
2023-04-26T06:09:04.471Z,33.61
2023-04-26T06:11:32.350Z,34.03
2023-04-26T06:14:00.162Z,30.62
2023-04-26T06:16:28.002Z,32.39
2023-04-26T06:18:57.233Z,32.11
2023-04-26T06:21:25.104Z,31.16
2023-04-26T06:23:53.078Z,31.87
2023-04-26T06:26:21.162Z,30.57
2023-04-26T06:28:48.965Z,29.21
2023-04-26T06:31:16.909Z,30.39
2023-04-26T06:33:44.909Z,29.30
2023-04-26T06:36:14.358Z,29.53
2023-04-26T06:38:42.189Z,29.06
2023-04-26T06:41:10.033Z,28.57
2023-04-26T06:43:37.824Z,29.47
2023-04-26T06:46:05.786Z,30.15
2023-04-26T06:48:33.658Z,29.70
2023-04-26T06:51:06.648Z,30.67
2023-04-26T06:53:35.872Z,30.00
2023-04-26T06:56:03.881Z,29.50
2023-04-26T06:58:31.910Z,29.39
2023-04-26T07:01:03.994Z,30.64
2023-04-26T07:03:32.666Z,29.78
2023-04-26T07:06:00.715Z,28.17
2023-04-26T07:08:28.623Z,28.05
2023-04-26T07:10:58.026Z,28.07
2023-04-26T07:13:26.202Z,28.24
2023-04-26T07:15:54.211Z,28.67
2023-04-26T07:18:22.172Z,28.31
2023-04-26T07:20:50.088Z,27.59
2023-04-26T07:23:18.013Z,27.90
2023-04-26T07:25:45.975Z,28.32
2023-04-26T07:28:15.287Z,28.46
2023-04-26T07:30:43.265Z,27.21
2023-04-26T07:33:11.346Z,27.26
2023-04-26T07:35:39.507Z,27.20
2023-04-26T07:38:07.795Z,27.68
2023-04-26T07:40:35.981Z,28.28
2023-04-26T07:43:03.961Z,28.32
2023-04-26T07:45:33.724Z,28.11
2023-04-26T07:48:01.698Z,27.92
2023-04-26T07:50:29.645Z,29.99
2023-04-26T07:52:57.614Z,32.39
2023-04-26T07:55:25.706Z,36.77
2023-04-26T07:57:53.638Z,37.20
2023-04-26T08:00:22.666Z,37.86
2023-04-26T08:02:52.082Z,37.31
2023-04-26T08:05:20.669Z,33.89
2023-04-26T08:07:48.944Z,34.08
2023-04-26T08:10:17.238Z,36.03
2023-04-26T08:12:46.612Z,36.90
2023-04-26T08:15:14.494Z,38.51
2023-04-26T08:17:42.714Z,39.40
2023-04-26T08:20:13.247Z,38.77
2023-04-26T08:22:41.306Z,38.64
2023-04-26T08:25:09.984Z,38.89
2023-04-26T08:27:38.136Z,39.74
2023-04-26T08:30:07.329Z,39.10
2023-04-26T08:32:35.542Z,37.94
2023-04-26T08:35:03.527Z,35.40
2023-04-26T08:37:32.916Z,35.20
2023-04-26T08:40:00.732Z,35.48
2023-04-26T08:42:29.584Z,35.70
2023-04-26T08:45:02.136Z,38.16
2023-04-26T08:47:35.906Z,40.06
2023-04-26T08:50:05.203Z,41.81
2023-04-26T08:52:36.393Z,42.46
2023-04-26T08:55:06.812Z,43.04
2023-04-26T08:57:34.960Z,42.35
2023-04-26T09:00:05.714Z,42.27
2023-04-26T09:02:34.386Z,41.44
2023-04-26T09:05:02.955Z,41.03
2023-04-26T09:07:33.901Z,42.08
2023-04-26T09:10:06.326Z,42.53
2023-04-26T09:12:34.348Z,43.46
2023-04-26T09:15:02.410Z,44.25
2023-04-26T09:17:32.588Z,44.89
2023-04-26T09:20:01.345Z,44.99
2023-04-26T09:22:31.367Z,44.66
2023-04-26T09:24:59.392Z,44.37
2023-04-26T09:27:36.001Z,44.28
2023-04-26T09:30:10.550Z,45.80
2023-04-26T09:32:46.756Z,45.52
2023-04-26T09:35:29.563Z,45.00
2023-04-26T09:38:05.630Z,45.54
2023-04-26T09:40:37.418Z,44.22
2023-04-26T09:43:08.020Z,41.88
2023-04-26T09:45:46.918Z,41.05
2023-04-26T09:48:16.755Z,41.18
2023-04-26T09:50:46.279Z,41.03
2023-04-26T09:53:27.635Z,41.32
2023-04-26T09:55:56.264Z,41.35
2023-04-26T09:58:25.735Z,40.59
2023-04-26T10:00:54.721Z,40.84
2023-04-26T10:03:24.734Z,41.18
2023-04-26T10:05:53.293Z,41.71
2023-04-26T10:08:21.180Z,41.48
2023-04-26T10:10:49.137Z,39.01
2023-04-26T10:13:17.782Z,37.80
2023-04-26T10:15:48.940Z,36.18
2023-04-26T10:18:17.475Z,37.46
2023-04-26T10:20:49.540Z,39.12
2023-04-26T10:23:22.147Z,40.21
2023-04-26T10:25:50.361Z,41.67
2023-04-26T10:28:18.830Z,41.37
2023-04-26T10:30:58.236Z,41.92
2023-04-26T10:33:26.455Z,40.24
2023-04-26T10:36:21.166Z,40.23
2023-04-26T10:39:18.714Z,39.01
2023-04-26T10:41:46.817Z,39.36
2023-04-26T10:44:40.879Z,40.01
2023-04-26T10:47:24.163Z,39.93
2023-04-26T10:49:52.601Z,39.97
2023-04-26T10:52:23.308Z,40.80
2023-04-26T10:54:54.286Z,40.74
2023-04-26T10:57:23.108Z,39.50
2023-04-26T11:00:21.203Z,39.31
2023-04-26T11:02:58.847Z,39.61
2023-04-26T11:05:57.011Z,40.13
2023-04-26T11:08:30.246Z,39.29
2023-04-26T11:11:06.140Z,38.75
2023-04-26T11:13:36.457Z,38.40
2023-04-26T11:16:06.176Z,38.24
2023-04-26T11:18:36.747Z,39.10
2023-04-26T11:21:06.365Z,40.37
2023-04-26T11:23:34.435Z,40.48
2023-04-26T11:26:03.928Z,41.42
2023-04-26T11:28:34.321Z,41.12
2023-04-26T11:31:03.890Z,40.83
2023-04-26T11:33:34.232Z,41.31
2023-04-26T11:36:04.103Z,40.98
2023-04-26T11:38:32.056Z,41.12
2023-04-26T11:41:01.625Z,38.50
2023-04-26T11:43:36.982Z,37.03
2023-04-26T11:46:06.857Z,34.99
2023-04-26T11:48:37.445Z,35.64
2023-04-26T11:51:09.470Z,35.75
2023-04-26T11:53:38.792Z,36.80
2023-04-26T11:56:15.281Z,36.60
2023-04-26T11:58:45.988Z,36.82
2023-04-26T12:01:20.922Z,37.23
2023-04-26T12:03:52.027Z,37.06
2023-04-26T12:06:22.187Z,37.12
2023-04-26T12:08:53.522Z,37.84
2023-04-26T12:11:22.542Z,37.39
2023-04-26T12:13:50.404Z,38.38
2023-04-26T12:16:26.126Z,38.12
2023-04-26T12:18:55.436Z,37.51
2023-04-26T12:21:28.099Z,37.82
2023-04-26T12:23:57.047Z,36.35
2023-04-26T12:26:43.043Z,36.22
2023-04-26T12:29:10.903Z,36.18
2023-04-26T12:31:39.174Z,36.78
2023-04-26T12:34:08.180Z,36.82
2023-04-26T12:36:37.496Z,37.60
2023-04-26T12:39:06.893Z,38.01
2023-04-26T12:41:34.785Z,38.18
2023-04-26T12:44:02.992Z,38.81
2023-04-26T12:46:31.194Z,38.38
2023-04-26T12:48:59.616Z,38.24
2023-04-26T12:51:27.554Z,37.39
2023-04-26T12:53:57.163Z,37.73
2023-04-26T12:56:25.627Z,37.04
2023-04-26T12:58:53.898Z,36.65
2023-04-26T13:01:21.976Z,36.97
2023-04-26T13:03:50.278Z,37.05
2023-04-26T13:06:19.073Z,37.25
2023-04-26T13:08:47.271Z,36.60
2023-04-26T13:11:16.642Z,37.04
2023-04-26T13:13:45.042Z,37.48
2023-04-26T13:16:13.922Z,38.19
2023-04-26T13:18:42.406Z,38.41
2023-04-26T13:21:10.614Z,38.80
2023-04-26T13:23:38.875Z,39.60
2023-04-26T13:26:06.806Z,39.23
2023-04-26T13:28:37.287Z,39.46
2023-04-26T13:31:05.565Z,38.58
2023-04-26T13:33:33.490Z,38.25
2023-04-26T13:36:01.735Z,36.52
2023-04-26T13:38:30.703Z,36.94
2023-04-26T13:41:00.225Z,37.67
2023-04-26T13:43:28.171Z,36.69
2023-04-26T13:45:57.543Z,38.05
2023-04-26T13:48:25.411Z,38.48
2023-04-26T13:50:53.481Z,37.50
2023-04-26T13:53:21.512Z,37.48
2023-04-26T13:55:49.444Z,38.41
2023-04-26T13:58:17.539Z,37.87
2023-04-26T14:00:45.797Z,37.70
2023-04-26T14:03:15.393Z,37.42
2023-04-26T14:05:43.622Z,37.21
2023-04-26T14:08:12.793Z,37.03
2023-04-26T14:10:40.889Z,36.96
2023-04-26T14:13:08.876Z,37.48
2023-04-26T14:15:37.151Z,37.44
2023-04-26T14:18:05.359Z,37.81
2023-04-26T14:20:34.610Z,37.63
2023-04-26T14:23:02.451Z,39.04
2023-04-26T14:25:30.326Z,38.41
2023-04-26T14:27:58.214Z,39.01
2023-04-26T14:30:27.194Z,39.52
2023-04-26T14:32:55.214Z,40.11
2023-04-26T14:35:23.103Z,40.57
2023-04-26T14:37:52.573Z,40.12
2023-04-26T14:40:20.552Z,41.33
2023-04-26T14:42:48.932Z,40.64
2023-04-26T14:45:16.968Z,40.87
2023-04-26T14:47:44.865Z,41.16
2023-04-26T14:50:14.158Z,41.46
2023-04-26T14:52:42.171Z,39.81
2023-04-26T14:55:11.476Z,40.17
2023-04-26T14:57:41.947Z,40.54
2023-04-26T15:00:16.344Z,40.57
2023-04-26T15:02:44.749Z,40.96
2023-04-26T15:05:13.277Z,41.32
2023-04-26T15:07:41.313Z,42.38
2023-04-26T15:10:11.211Z,42.84
2023-04-26T15:12:39.281Z,43.12
2023-04-26T15:15:08.451Z,42.08
2023-04-26T15:17:36.326Z,41.92
2023-04-26T15:20:06.435Z,41.99
2023-04-26T15:22:37.133Z,43.01
2023-04-26T15:25:07.439Z,41.84
2023-04-26T15:27:37.205Z,42.60
2023-04-26T15:30:06.389Z,42.24
2023-04-26T15:32:34.476Z,42.61
2023-04-26T15:35:02.663Z,42.81
2023-04-26T15:37:30.775Z,42.78
2023-04-26T15:39:58.634Z,43.67
2023-04-26T15:42:26.631Z,43.50
2023-04-26T15:44:56.319Z,43.37
2023-04-26T15:47:24.207Z,43.58
2023-04-26T15:49:52.187Z,43.55
2023-04-26T15:52:20.052Z,43.16
2023-04-26T15:54:48.063Z,42.94
2023-04-26T15:57:15.983Z,43.29
2023-04-26T15:59:43.953Z,43.02
2023-04-26T16:02:14.541Z,42.37
2023-04-26T16:04:43.046Z,41.85
2023-04-26T16:07:11.019Z,41.89
2023-04-26T16:09:39.227Z,42.15
2023-04-26T16:12:07.797Z,42.78
2023-04-26T16:14:35.740Z,42.21
2023-04-26T16:17:04.877Z,42.53
2023-04-26T16:19:34.146Z,42.65
2023-04-26T16:22:02.044Z,43.36
2023-04-26T16:24:29.936Z,42.53
2023-04-26T16:26:57.755Z,43.17
2023-04-26T16:29:26.296Z,43.14
2023-04-26T16:31:55.176Z,43.31
2023-04-26T16:34:23.277Z,42.97
2023-04-26T16:36:52.500Z,44.01
2023-04-26T16:39:21.643Z,42.65
2023-04-26T16:41:49.600Z,42.93
2023-04-26T16:44:17.463Z,42.41
2023-04-26T16:46:45.456Z,42.42
2023-04-26T16:49:13.456Z,42.35
2023-04-26T16:51:44.317Z,43.65
2023-04-26T16:54:13.530Z,43.18
2023-04-26T16:56:41.400Z,43.42
2023-04-26T16:59:09.296Z,42.81
2023-04-26T17:01:37.521Z,43.97
2023-04-26T17:04:05.832Z,43.11
2023-04-26T17:06:33.843Z,43.38
2023-04-26T17:09:01.910Z,43.87
2023-04-26T17:11:31.298Z,43.41
2023-04-26T17:13:59.163Z,44.07
2023-04-26T17:16:27.208Z,44.56
2023-04-26T17:18:54.988Z,43.99
2023-04-26T17:21:22.844Z,43.38
2023-04-26T17:23:50.945Z,43.51
2023-04-26T17:26:18.902Z,44.22
2023-04-26T17:28:48.133Z,44.54
2023-04-26T17:31:16.064Z,45.25
2023-04-26T17:33:44.232Z,44.58
2023-04-26T17:36:12.518Z,44.36
2023-04-26T17:38:40.578Z,43.59
2023-04-26T17:41:08.530Z,44.70
2023-04-26T17:43:36.386Z,44.42
2023-04-26T17:46:05.828Z,44.93
2023-04-26T17:48:33.743Z,45.52
2023-04-26T17:51:01.678Z,44.87
2023-04-26T17:53:29.733Z,45.12
2023-04-26T17:55:57.634Z,44.84
2023-04-26T17:58:25.600Z,44.74
2023-04-26T18:00:53.858Z,45.18
2023-04-26T18:03:23.468Z,44.67
2023-04-26T18:05:51.590Z,45.06
2023-04-26T18:08:20.584Z,44.13
2023-04-26T18:10:50.515Z,44.67
2023-04-26T18:13:18.819Z,45.29
2023-04-26T18:15:46.931Z,44.33
2023-04-26T18:18:15.029Z,44.93
2023-04-26T18:20:44.224Z,45.10
2023-04-26T18:23:12.316Z,43.97
2023-04-26T18:25:40.177Z,43.75
2023-04-26T18:28:08.746Z,44.51
2023-04-26T18:30:36.652Z,43.92
2023-04-26T18:33:05.193Z,44.55
2023-04-26T18:35:33.084Z,44.03
2023-04-26T18:38:02.395Z,44.34
2023-04-26T18:40:30.339Z,44.34
2023-04-26T18:42:58.905Z,44.44
2023-04-26T18:45:27.119Z,44.24
2023-04-26T18:47:55.469Z,45.23
2023-04-26T18:50:23.607Z,45.08
2023-04-26T18:52:51.481Z,44.19
2023-04-26T18:55:20.880Z,44.62
2023-04-26T18:57:48.742Z,44.41
2023-04-26T19:00:17.157Z,45.52
2023-04-26T19:02:45.184Z,44.41
2023-04-26T19:05:14.135Z,44.22
2023-04-26T19:07:42.177Z,44.30
2023-04-26T19:10:10.992Z,44.55
2023-04-26T19:12:40.175Z,44.54
2023-04-26T19:15:09.061Z,44.42
2023-04-26T19:17:37.388Z,44.21
2023-04-26T19:20:09.218Z,44.79
2023-04-26T19:22:37.430Z,44.45
2023-04-26T19:25:05.573Z,45.16
2023-04-26T19:27:33.450Z,45.41
2023-04-26T19:30:02.751Z,45.07
2023-04-26T19:32:30.615Z,45.34
2023-04-26T19:34:58.640Z,45.32
2023-04-26T19:37:26.477Z,45.57
2023-04-26T19:39:54.309Z,45.42
2023-04-26T19:42:22.166Z,45.74
2023-04-26T19:44:49.969Z,45.13
2023-04-26T19:47:19.542Z,45.66
2023-04-26T19:49:47.961Z,45.50
2023-04-26T19:52:18.291Z,45.55
2023-04-26T19:54:46.247Z,45.87
2023-04-26T19:57:14.077Z,45.79
2023-04-26T19:59:41.970Z,46.66
2023-04-26T20:02:09.805Z,46.63
2023-04-26T20:04:39.028Z,46.47
2023-04-26T20:07:07.329Z,46.66
2023-04-26T20:09:35.742Z,46.70
2023-04-26T20:12:13.225Z,47.07
2023-04-26T20:14:41.292Z,46.97
2023-04-26T20:17:09.057Z,46.47
2023-04-26T20:19:38.271Z,47.37
2023-04-26T20:22:06.187Z,47.06
2023-04-26T20:24:34.002Z,47.87
2023-04-26T20:27:02.389Z,47.70
2023-04-26T20:29:30.263Z,48.67
2023-04-26T20:31:58.166Z,49.04
2023-04-26T20:34:26.826Z,48.63
2023-04-26T20:36:56.220Z,50.23
2023-04-26T20:39:24.196Z,49.74
2023-04-26T20:41:52.213Z,49.41
2023-04-26T20:44:20.082Z,49.26
2023-04-26T20:46:47.958Z,49.76
2023-04-26T20:49:16.212Z,50.21
2023-04-26T20:51:44.062Z,49.85
2023-04-26T20:54:13.242Z,50.54
2023-04-26T20:56:41.639Z,49.88
2023-04-26T20:59:09.786Z,49.54
2023-04-26T21:01:37.936Z,50.01
2023-04-26T21:04:06.238Z,49.66
2023-04-26T21:06:34.213Z,50.15
2023-04-26T21:09:02.148Z,50.76
2023-04-26T21:11:31.486Z,50.78
2023-04-26T21:13:59.400Z,50.70
2023-04-26T21:16:27.456Z,50.33
2023-04-26T21:18:55.591Z,49.93
2023-04-26T21:21:23.618Z,50.46
2023-04-26T21:23:51.555Z,50.53
2023-04-26T21:26:19.468Z,50.12
2023-04-26T21:28:48.719Z,50.97
2023-04-26T21:31:16.953Z,51.47
2023-04-26T21:33:44.931Z,51.90
2023-04-26T21:36:12.786Z,51.63
2023-04-26T21:38:40.600Z,51.86
2023-04-26T21:41:08.468Z,51.80
2023-04-26T21:43:36.499Z,51.52
2023-04-26T21:46:06.711Z,51.89
2023-04-26T21:48:35.073Z,51.64
2023-04-26T21:51:03.030Z,52.34
2023-04-26T21:53:31.020Z,52.09
2023-04-26T21:55:59.016Z,52.57
2023-04-26T21:58:26.858Z,52.63
2023-04-26T22:00:54.714Z,52.97
2023-04-26T22:03:24.331Z,52.40
2023-04-26T22:05:52.647Z,52.59
2023-04-26T22:08:20.582Z,53.39
2023-04-26T22:10:48.553Z,52.51
2023-04-26T22:13:16.894Z,52.98
2023-04-26T22:15:45.045Z,53.24
2023-04-26T22:18:12.867Z,53.46
2023-04-26T22:20:42.313Z,53.48
2023-04-26T22:23:10.849Z,53.98
2023-04-26T22:25:39.246Z,53.90
2023-04-26T22:28:07.333Z,54.06
2023-04-26T22:30:35.214Z,54.15
2023-04-26T22:33:03.276Z,53.88
2023-04-26T22:35:31.289Z,53.87
2023-04-26T22:38:00.609Z,54.42
2023-04-26T22:40:28.492Z,53.87
2023-04-26T22:42:56.528Z,53.77
2023-04-26T22:45:24.632Z,54.38
2023-04-26T22:47:52.536Z,54.28
2023-04-26T22:50:20.542Z,54.36
2023-04-26T22:52:49.848Z,54.78
2023-04-26T22:55:19.497Z,54.56
2023-04-26T22:57:47.650Z,54.53
2023-04-26T23:00:16.225Z,55.26
2023-04-26T23:02:44.306Z,55.32
2023-04-26T23:05:12.488Z,55.13
2023-04-26T23:07:40.972Z,55.04
2023-04-26T23:10:09.650Z,55.79
2023-04-26T23:12:38.888Z,56.14
2023-04-26T23:15:08.490Z,55.95
2023-04-26T23:17:36.943Z,56.21
2023-04-26T23:20:12.013Z,55.65
2023-04-26T23:22:41.211Z,56.09
2023-04-26T23:25:10.779Z,55.69
2023-04-26T23:27:40.210Z,56.38
2023-04-26T23:30:09.227Z,56.34
2023-04-26T23:32:37.153Z,56.01
2023-04-26T23:35:05.626Z,56.30
2023-04-26T23:37:33.795Z,56.23
2023-04-26T23:40:01.733Z,56.67
2023-04-26T23:42:29.682Z,56.42
2023-04-26T23:44:58.880Z,56.23
2023-04-26T23:47:27.017Z,56.33
2023-04-26T23:49:54.925Z,56.85
2023-04-26T23:52:22.817Z,56.40
2023-04-26T23:54:50.646Z,56.26
2023-04-26T23:57:18.714Z,56.71
2023-04-26T23:59:46.853Z,56.72
